| time (UTC) | temp F | wind direction | speed MPH | gust MPH | rain 1hr in | rain 24hr in | rain mn in | humidity % | barometer mb |
| 20260505160529 | 49 | 0 | 2.0 | 6.0 | 0.00 | 0.00 | 0.00 | 65 | 1011.2 |
| 20260505153049 | 46 | 158 | 1.0 | 6.0 | 0.00 | 0.00 | 0.00 | 65 | 1011.2 |
| 20260505152535 | 46 | 165 | 2.0 | 6.0 | 0.00 | 0.00 | 0.00 | 65 | 1011.3 |
| 20260505152032 | 46 | 167 | 3.0 | 5.0 | 0.00 | 0.00 | 0.00 | 65 | 1011.3 |
| 20260505151548 | 45 | 0 | 1.0 | 5.0 | 0.00 | 0.00 | 0.00 | 65 | 1011.5 |
| 20260505151029 | 44 | 190 | 2.0 | 5.0 | 0.00 | 0.00 | 0.00 | 65 | 1011.4 |
| 20260505150534 | 43 | 192 | 2.0 | 5.0 | 0.00 | 0.00 | 0.00 | 64 | 1011.7 |
| 20260505140530 | 33 | 0 | 0.0 | 0.0 | 0.00 | 0.00 | 0.00 | 64 | 1011.1 |
| 20260505125030 | 28 | 0 | 0.0 | 0.0 | 0.00 | 0.00 | 0.00 | 63 | 1010.7 |
| 20260505124540 | 28 | 0 | 0.0 | 0.0 | 0.00 | 0.00 | 0.00 | 63 | 1010.6 |
| 20260505124035 | 28 | 0 | 0.0 | 0.0 | 0.00 | 0.00 | 0.00 | 63 | 1010.5 |
| 20260505123532 | 28 | 0 | 0.0 | 0.0 | 0.00 | 0.00 | 0.00 | 63 | 1010.4 |
| 20260505123054 | 27 | 0 | 0.0 | 0.0 | 0.00 | 0.00 | 0.00 | 63 | 1010.2 |
| 20260505122529 | 27 | 0 | 0.0 | 0.0 | 0.00 | 0.00 | 0.00 | 63 | 1010.2 |
| 20260505122035 | 27 | 0 | 0.0 | 0.0 | 0.00 | 0.00 | 0.00 | 63 | 1010.2 |
| 20260505121543 | 28 | 0 | 0.0 | 0.0 | 0.00 | 0.00 | 0.00 | 63 | 1010.2 |
| 20260505121029 | 28 | 0 | 0.0 | 0.0 | 0.00 | 0.00 | 0.00 | 63 | 1010.2 |
| 20260505120529 | 28 | 0 | 0.0 | 0.0 | 0.00 | 0.00 | 0.00 | 63 | 1010.2 |
| 20260505120044 | 28 | 0 | 0.0 | 0.0 | 0.00 | 0.00 | 0.00 | 63 | 1010.4 |
| 20260505115528 | 29 | 0 | 0.0 | 0.0 | 0.00 | 0.00 | 0.00 | 63 | 1010.1 |
| 20260505115035 | 29 | 0 | 0.0 | 0.0 | 0.00 | 0.00 | 0.00 | 63 | 1010.2 |
| 20260505114542 | 29 | 0 | 0.0 | 0.0 | 0.00 | 0.00 | 0.00 | 63 | 1010.2 |
| 20260505114028 | 29 | 0 | 0.0 | 0.0 | 0.00 | 0.00 | 0.00 | 63 | 1010.3 |
| 20260505113530 | 29 | 0 | 0.0 | 0.0 | 0.00 | 0.00 | 0.00 | 63 | 1010.2 |
| 20260505113041 | 29 | 0 | 0.0 | 0.0 | 0.00 | 0.00 | 0.00 | 63 | 1010.1 |
| 20260505112530 | 29 | 0 | 0.0 | 0.0 | 0.00 | 0.00 | 0.00 | 63 | 1010.2 |
| 20260505112029 | 30 | 0 | 0.0 | 0.0 | 0.00 | 0.00 | 0.00 | 63 | 1010.1 |
| 20260505111545 | 30 | 0 | 0.0 | 0.0 | 0.00 | 0.00 | 0.00 | 63 | 1010.2 |
| 20260505111029 | 29 | 0 | 0.0 | 0.0 | 0.00 | 0.00 | 0.00 | 63 | 1010.1 |
| 20260505110528 | 29 | 0 | 0.0 | 0.0 | 0.00 | 0.00 | 0.00 | 63 | 1010.2 |
| 20260505102028 | 31 | 0 | 0.0 | 0.0 | 0.00 | 0.00 | 0.00 | 64 | 1010.1 |
| 20260505101541 | 31 | 0 | 0.0 | 0.0 | 0.00 | 0.00 | 0.00 | 64 | 1010.0 |
| 20260505101029 | 31 | 0 | 0.0 | 0.0 | 0.00 | 0.00 | 0.00 | 64 | 1010.1 |
| 20260505100529 | 31 | 0 | 0.0 | 0.0 | 0.00 | 0.00 | 0.00 | 64 | 1010.1 |
| 20260505100038 | 31 | 0 | 0.0 | 2.0 | 0.00 | 0.00 | 0.00 | 64 | 1010.1 |
| 20260505095528 | 31 | 0 | 0.0 | 2.0 | 0.00 | 0.00 | 0.00 | 64 | 1010.0 |
| 20260505095031 | 31 | 0 | 0.0 | 2.0 | 0.00 | 0.00 | 0.00 | 64 | 1010.0 |
| 20260505094537 | 32 | 217 | 0.0 | 3.0 | 0.00 | 0.00 | 0.00 | 63 | 1010.2 |
| 20260505094029 | 32 | 0 | 0.0 | 4.0 | 0.00 | 0.00 | 0.00 | 63 | 1010.0 |
| 20260505093529 | 31 | 217 | 2.0 | 4.0 | 0.00 | 0.00 | 0.00 | 64 | 1010.0 |
| 20260505093046 | 31 | 217 | 3.0 | 4.0 | 0.00 | 0.00 | 0.00 | 64 | 1010.0 |
| 20260505092529 | 32 | 217 | 1.0 | 3.0 | 0.00 | 0.00 | 0.00 | 64 | 1009.9 |
| 20260505092032 | 32 | 0 | 0.0 | 0.0 | 0.00 | 0.00 | 0.00 | 64 | 1009.8 |
| 20260505091559 | 33 | 0 | 0.0 | 0.0 | 0.00 | 0.00 | 0.00 | 64 | 1009.8 |
| 20260505091028 | 33 | 0 | 0.0 | 0.0 | 0.00 | 0.00 | 0.00 | 64 | 1009.9 |
| 20260505090531 | 34 | 0 | 0.0 | 0.0 | 0.00 | 0.00 | 0.00 | 64 | 1009.8 |
| 20260505090044 | 34 | 0 | 0.0 | 0.0 | 0.00 | 0.00 | 0.00 | 64 | 1009.7 |
| 20260505085532 | 34 | 0 | 0.0 | 0.0 | 0.00 | 0.00 | 0.00 | 64 | 1009.8 |
| 20260505085030 | 34 | 0 | 0.0 | 0.0 | 0.00 | 0.00 | 0.00 | 64 | 1009.8 |
| 20260505084538 | 35 | 0 | 0.0 | 0.0 | 0.00 | 0.00 | 0.00 | 64 | 1009.7 |
| 20260505084031 | 35 | 0 | 0.0 | 0.0 | 0.00 | 0.00 | 0.00 | 64 | 1009.7 |
| 20260505083528 | 35 | 0 | 0.0 | 0.0 | 0.00 | 0.00 | 0.00 | 64 | 1009.7 |
| 20260505083036 | 35 | 0 | 0.0 | 0.0 | 0.00 | 0.00 | 0.00 | 64 | 1009.8 |
| 20260505082529 | 35 | 0 | 0.0 | 0.0 | 0.00 | 0.00 | 0.00 | 64 | 1009.9 |
| 20260505082029 | 35 | 0 | 0.0 | 2.0 | 0.00 | 0.00 | 0.00 | 64 | 1009.9 |
| 20260505081555 | 36 | 0 | 0.0 | 3.0 | 0.00 | 0.00 | 0.00 | 64 | 1010.0 |
| 20260505081029 | 36 | 217 | 1.0 | 3.0 | 0.00 | 0.00 | 0.00 | 64 | 1010.0 |
| 20260505080529 | 36 | 0 | 0.0 | 3.0 | 0.00 | 0.00 | 0.00 | 64 | 1010.0 |
| 20260505080046 | 36 | 0 | 1.0 | 4.0 | 0.00 | 0.00 | 0.00 | 64 | 1010.0 |
| 20260505075528 | 36 | 217 | 2.0 | 4.0 | 0.00 | 0.00 | 0.00 | 64 | 1010.0 |
| 20260505075028 | 36 | 217 | 2.0 | 4.0 | 0.00 | 0.00 | 0.00 | 64 | 1010.0 |
| 20260505074542 | 36 | 219 | 3.0 | 4.0 | 0.00 | 0.00 | 0.00 | 64 | 1010.0 |
| 20260505074028 | 36 | 219 | 3.0 | 4.0 | 0.00 | 0.00 | 0.00 | 64 | 1010.0 |
| 20260505073529 | 37 | 0 | 0.0 | 3.0 | 0.00 | 0.00 | 0.00 | 64 | 1010.0 |
| 20260505073046 | 37 | 0 | 0.0 | 3.0 | 0.00 | 0.00 | 0.00 | 64 | 1010.1 |
| 20260505072533 | 38 | 0 | 0.0 | 0.0 | 0.00 | 0.00 | 0.00 | 64 | 1010.0 |
| 20260505072029 | 38 | 0 | 0.0 | 0.0 | 0.00 | 0.00 | 0.00 | 64 | 1010.0 |
| 20260505071550 | 38 | 0 | 0.0 | 0.0 | 0.00 | 0.00 | 0.00 | 64 | 1010.1 |
| 20260505071029 | 39 | 0 | 0.0 | 0.0 | 0.00 | 0.00 | 0.00 | 64 | 1010.1 |
| 20260505070532 | 39 | 0 | 0.0 | 2.0 | 0.00 | 0.00 | 0.00 | 64 | 1010.0 |
| 20260505070046 | 39 | 0 | 0.0 | 2.0 | 0.00 | 0.00 | 0.00 | 64 | 1010.0 |
| 20260505065529 | 40 | 0 | 0.0 | 2.0 | 0.00 | 0.00 | 0.00 | 64 | 1010.1 |
| 20260505065028 | 40 | 0 | 0.0 | 2.0 | 0.00 | 0.00 | 0.00 | 64 | 1010.1 |
| 20260505064535 | 40 | 221 | 0.0 | 3.0 | 0.00 | 0.00 | 0.00 | 64 | 1010.1 |
| 20260505064028 | 41 | 0 | 0.0 | 3.0 | 0.00 | 0.00 | 0.00 | 64 | 1010.2 |
| 20260505063531 | 41 | 0 | 0.0 | 0.0 | 0.00 | 0.00 | 0.00 | 64 | 1010.1 |
| 20260505063100 | 41 | 0 | 0.0 | 0.0 | 0.00 | 0.00 | 0.00 | 64 | 1010.0 |
| 20260505062528 | 41 | 0 | 0.0 | 0.0 | 0.00 | 0.00 | 0.00 | 64 | 1010.0 |
| 20260505062029 | 42 | 0 | 0.0 | 3.0 | 0.00 | 0.00 | 0.00 | 64 | 1010.0 |
| 20260505061606 | 42 | 0 | 0.0 | 3.0 | 0.00 | 0.00 | 0.00 | 64 | 1010.0 |
| 20260505061031 | 42 | 221 | 1.0 | 2.0 | 0.00 | 0.00 | 0.00 | 64 | 1009.9 |
| 20260505060533 | 43 | 0 | 0.0 | 3.0 | 0.00 | 0.00 | 0.00 | 64 | 1009.9 |
| 20260505060055 | 43 | 0 | 0.0 | 5.0 | 0.00 | 0.00 | 0.00 | 65 | 1009.8 |
| 20260505055529 | 43 | 0 | 1.0 | 5.0 | 0.00 | 0.00 | 0.00 | 64 | 1009.9 |
| 20260505055033 | 42 | 221 | 2.0 | 5.0 | 0.00 | 0.00 | 0.00 | 64 | 1009.8 |
| 20260505054541 | 42 | 0 | 0.0 | 5.0 | 0.00 | 0.00 | 0.00 | 64 | 1009.9 |
| 20260505054028 | 42 | 177 | 3.0 | 5.0 | 0.00 | 0.00 | 0.00 | 65 | 1009.8 |
| 20260505053528 | 44 | 176 | 1.0 | 4.0 | 0.00 | 0.00 | 0.00 | 65 | 1009.8 |
| 20260505053046 | 45 | 175 | 0.0 | 4.0 | 0.00 | 0.00 | 0.00 | 65 | 1009.8 |
| 20260505052531 | 45 | 0 | 0.0 | 3.0 | 0.00 | 0.00 | 0.00 | 65 | 1010.0 |
| 20260505052028 | 45 | 176 | 0.0 | 3.0 | 0.00 | 0.00 | 0.00 | 65 | 1009.9 |
| 20260505051556 | 46 | 176 | 0.0 | 3.0 | 0.00 | 0.00 | 0.00 | 65 | 1010.0 |
| 20260505051033 | 47 | 0 | 0.0 | 3.0 | 0.00 | 0.00 | 0.00 | 65 | 1010.0 |
| 20260505050531 | 48 | 0 | 1.0 | 3.0 | 0.00 | 0.00 | 0.00 | 65 | 1010.0 |
| 20260505041537 | 51 | 0 | 0.0 | 2.0 | 0.00 | 0.00 | 0.00 | 65 | 1009.8 |
| 20260505041030 | 52 | 0 | 0.0 | 5.0 | 0.00 | 0.00 | 0.00 | 65 | 1009.8 |
| 20260505040530 | 53 | 0 | 0.0 | 6.0 | 0.00 | 0.00 | 0.00 | 65 | 1009.7 |
| 20260505040039 | 53 | 176 | 3.0 | 6.0 | 0.00 | 0.00 | 0.00 | 66 | 1009.6 |
| 20260505035529 | 54 | 171 | 3.0 | 8.0 | 0.00 | 0.00 | 0.00 | 65 | 1009.5 |
| 20260505035029 | 55 | 154 | 3.0 | 8.0 | 0.00 | 0.00 | 0.00 | 66 | 1009.5 |
| 20260505034543 | 55 | 162 | 1.0 | 7.0 | 0.00 | 0.00 | 0.00 | 66 | 1009.4 |
| 20260505034029 | 55 | 161 | 2.0 | 11.0 | 0.00 | 0.00 | 0.00 | 66 | 1009.4 |
| 20260505033533 | 56 | 160 | 5.0 | 11.0 | 0.00 | 0.00 | 0.00 | 66 | 1009.2 |
| 20260505033037 | 56 | 157 | 3.0 | 11.0 | 0.00 | 0.00 | 0.00 | 66 | 1009.1 |
| 20260505032529 | 57 | 151 | 2.0 | 5.0 | 0.00 | 0.00 | 0.00 | 66 | 1009.1 |
| 20260505032029 | 57 | 147 | 3.0 | 10.0 | 0.00 | 0.00 | 0.00 | 66 | 1008.9 |
| 20260505031539 | 58 | 144 | 3.0 | 11.0 | 0.00 | 0.00 | 0.00 | 66 | 1008.9 |
| 20260505031029 | 58 | 174 | 5.0 | 11.0 | 0.00 | 0.00 | 0.00 | 66 | 1008.7 |
| 20260505030529 | 58 | 175 | 5.0 | 10.0 | 0.00 | 0.00 | 0.00 | 66 | 1008.7 |
| 20260505030037 | 58 | 180 | 5.0 | 10.0 | 0.00 | 0.00 | 0.00 | 66 | 1008.6 |
| 20260505025530 | 58 | 175 | 1.0 | 6.0 | 0.00 | 0.00 | 0.00 | 66 | 1008.6 |
| 20260505025028 | 58 | 180 | 3.0 | 9.0 | 0.00 | 0.00 | 0.00 | 66 | 1008.6 |
| 20260505024548 | 58 | 190 | 5.0 | 11.0 | 0.00 | 0.00 | 0.00 | 66 | 1008.5 |
| 20260505024029 | 59 | 175 | 6.0 | 20.0 | 0.00 | 0.00 | 0.00 | 66 | 1008.3 |
| 20260505023529 | 59 | 168 | 9.0 | 20.0 | 0.00 | 0.00 | 0.00 | 66 | 1008.2 |
| 20260505023041 | 60 | 135 | 8.0 | 14.0 | 0.00 | 0.00 | 0.00 | 66 | 1007.9 |
| 20260505022531 | 61 | 191 | 5.0 | 14.0 | 0.00 | 0.00 | 0.00 | 66 | 1007.8 |
| 20260505022029 | 61 | 159 | 5.0 | 12.0 | 0.00 | 0.00 | 0.00 | 66 | 1007.8 |
| 20260505021537 | 62 | 169 | 2.0 | 9.0 | 0.00 | 0.00 | 0.00 | 66 | 1007.8 |
| 20260505021029 | 63 | 103 | 1.0 | 9.0 | 0.00 | 0.00 | 0.00 | 66 | 1007.6 |
| 20260505020529 | 63 | 100 | 3.0 | 9.0 | 0.00 | 0.00 | 0.00 | 67 | 1007.7 |
| 20260505020037 | 64 | 22 | 1.0 | 12.0 | 0.00 | 0.00 | 0.00 | 66 | 1007.6 |
| 20260505015530 | 64 | 0 | 4.0 | 16.0 | 0.00 | 0.00 | 0.00 | 66 | 1007.6 |
| 20260505015029 | 64 | 33 | 10.0 | 16.0 | 0.00 | 0.00 | 0.00 | 66 | 1007.5 |
| 20260505014537 | 64 | 18 | 10.0 | 14.0 | 0.00 | 0.00 | 0.00 | 66 | 1007.5 |
| 20260505014031 | 64 | 12 | 8.0 | 12.0 | 0.00 | 0.00 | 0.00 | 66 | 1007.6 |
| 20260505013529 | 64 | 9 | 7.0 | 13.0 | 0.00 | 0.00 | 0.00 | 67 | 1007.5 |
| 20260505013042 | 64 | 342 | 5.0 | 13.0 | 0.00 | 0.00 | 0.00 | 66 | 1007.6 |
| 20260505012529 | 64 | 344 | 8.0 | 14.0 | 0.00 | 0.00 | 0.00 | 66 | 1007.6 |
| 20260505012031 | 64 | 346 | 8.0 | 14.0 | 0.00 | 0.00 | 0.00 | 67 | 1007.7 |
| 20260505011541 | 64 | 5 | 10.0 | 15.0 | 0.00 | 0.00 | 0.00 | 67 | 1007.6 |
| 20260505011029 | 63 | 350 | 9.0 | 15.0 | 0.00 | 0.00 | 0.00 | 67 | 1007.7 |
| 20260505010529 | 63 | 348 | 9.0 | 14.0 | 0.00 | 0.00 | 0.00 | 67 | 1007.6 |
| 20260505010038 | 63 | 13 | 6.0 | 12.0 | 0.00 | 0.00 | 0.00 | 66 | 1007.7 |
| 20260505005529 | 63 | 360 | 6.0 | 12.0 | 0.00 | 0.00 | 0.00 | 66 | 1007.6 |
| 20260505005029 | 63 | 304 | 5.0 | 14.0 | 0.00 | 0.00 | 0.00 | 66 | 1007.6 |
| 20260505004536 | 63 | 277 | 8.0 | 14.0 | 0.00 | 0.00 | 0.00 | 66 | 1007.8 |
| 20260505004028 | 63 | 284 | 6.0 | 18.0 | 0.00 | 0.00 | 0.00 | 67 | 1007.8 |
| 20260505003528 | 64 | 294 | 8.0 | 18.0 | 0.00 | 0.00 | 0.00 | 66 | 1007.8 |
| 20260505003043 | 65 | 286 | 12.0 | 18.0 | 0.00 | 0.00 | 0.00 | 66 | 1007.7 |
| 20260505002528 | 65 | 328 | 12.0 | 18.0 | 0.00 | 0.00 | 0.00 | 66 | 1007.6 |
| 20260505002029 | 65 | 324 | 11.0 | 18.0 | 0.00 | 0.00 | 0.00 | 67 | 1007.6 |
| 20260505001535 | 65 | 304 | 10.0 | 16.0 | 0.00 | 0.00 | 0.00 | 66 | 1007.7 |
| 20260505001029 | 65 | 342 | 11.0 | 19.0 | 0.00 | 0.00 | 0.00 | 67 | 1007.7 |
| 20260505000530 | 65 | 313 | 11.0 | 21.0 | 0.00 | 0.00 | 0.00 | 67 | 1007.8 |
| 20260505000046 | 65 | 306 | 14.0 | 21.0 | 0.00 | 0.00 | 0.00 | 67 | 1007.8 |
| 20260504235529 | 65 | 290 | 11.0 | 20.0 | 0.00 | 0.00 | 0.00 | 67 | 1007.9 |
| 20260504235031 | 65 | 325 | 14.0 | 19.0 | 0.00 | 0.00 | 0.00 | 67 | 1007.8 |
| 20260504234539 | 66 | 355 | 11.0 | 17.0 | 0.00 | 0.00 | 0.00 | 67 | 1007.9 |
| 20260504234029 | 67 | 5 | 12.0 | 16.0 | 0.00 | 0.00 | 0.00 | 67 | 1007.9 |
| 20260504233531 | 68 | 351 | 9.0 | 20.0 | 0.00 | 0.00 | 0.00 | 67 | 1008.0 |
| 20260504233042 | 69 | 355 | 13.0 | 20.0 | 0.00 | 0.00 | 0.00 | 67 | 1008.0 |
| 20260504232529 | 69 | 325 | 13.0 | 18.0 | 0.00 | 0.00 | 0.00 | 67 | 1007.9 |
| 20260504232029 | 69 | 360 | 9.0 | 16.0 | 0.00 | 0.00 | 0.00 | 67 | 1007.9 |
| 20260504231546 | 69 | 346 | 9.0 | 14.0 | 0.00 | 0.00 | 0.00 | 67 | 1008.0 |
| 20260504231028 | 69 | 355 | 6.0 | 14.0 | 0.00 | 0.00 | 0.00 | 67 | 1008.0 |
| 20260504230528 | 69 | 313 | 9.0 | 14.0 | 0.00 | 0.00 | 0.00 | 67 | 1008.1 |
| 20260504230053 | 69 | 321 | 8.0 | 13.0 | 0.00 | 0.00 | 0.00 | 67 | 1008.0 |
| 20260504225529 | 69 | 305 | 6.0 | 12.0 | 0.00 | 0.00 | 0.00 | 67 | 1008.1 |
| 20260504225032 | 68 | 231 | 3.0 | 9.0 | 0.00 | 0.00 | 0.00 | 67 | 1008.2 |
| 20260504224542 | 68 | 241 | 3.0 | 9.0 | 0.00 | 0.00 | 0.00 | 67 | 1008.2 |
| 20260504224029 | 67 | 54 | 2.0 | 5.0 | 0.00 | 0.00 | 0.00 | 67 | 1008.3 |
| 20260504223530 | 65 | 0 | 0.0 | 4.0 | 0.00 | 0.00 | 0.00 | 66 | 1008.5 |
| 20260504223047 | 65 | 0 | 0.0 | 13.0 | 0.00 | 0.00 | 0.00 | 67 | 1008.6 |
| 20260504222528 | 65 | 0 | 1.0 | 13.0 | 0.00 | 0.00 | 0.00 | 67 | 1008.6 |
| 20260504222029 | 65 | 103 | 7.0 | 16.0 | 0.00 | 0.00 | 0.00 | 67 | 1008.7 |
| 20260504221535 | 65 | 71 | 7.0 | 16.0 | 0.00 | 0.00 | 0.00 | 67 | 1008.8 |
| 20260504221029 | 65 | 103 | 7.0 | 16.0 | 0.00 | 0.00 | 0.00 | 67 | 1008.9 |
| 20260504220529 | 65 | 63 | 8.0 | 17.0 | 0.00 | 0.00 | 0.00 | 67 | 1009.0 |
| 20260504220038 | 65 | 52 | 9.0 | 17.0 | 0.00 | 0.00 | 0.00 | 67 | 1009.0 |
| 20260504215529 | 64 | 38 | 8.0 | 20.0 | 0.00 | 0.00 | 0.00 | 66 | 1009.0 |
| 20260504215028 | 63 | 61 | 10.0 | 26.0 | 0.00 | 0.00 | 0.00 | 66 | 1009.0 |
| 20260504214548 | 63 | 69 | 15.0 | 26.0 | 0.00 | 0.00 | 0.00 | 66 | 1009.0 |
| 20260504214032 | 65 | 96 | 9.0 | 17.0 | 0.00 | 0.00 | 0.00 | 67 | 1008.9 |
| 20260504213529 | 65 | 9 | 9.0 | 18.0 | 0.00 | 0.00 | 0.00 | 67 | 1009.2 |
| 20260504213041 | 66 | 5 | 11.0 | 18.0 | 0.00 | 0.00 | 0.00 | 67 | 1009.0 |
| 20260504212529 | 66 | 329 | 10.0 | 23.0 | 0.00 | 0.00 | 0.00 | 67 | 1009.0 |
| 20260504212030 | 67 | 360 | 16.0 | 23.0 | 0.00 | 0.00 | 0.00 | 67 | 1009.1 |
| 20260504211540 | 68 | 355 | 6.0 | 17.0 | 0.00 | 0.00 | 0.00 | 67 | 1009.0 |
| 20260504211029 | 67 | 18 | 11.0 | 17.0 | 0.00 | 0.00 | 0.00 | 67 | 1009.2 |
| 20260504210529 | 67 | 340 | 8.0 | 16.0 | 0.00 | 0.00 | 0.00 | 67 | 1009.2 |
| 20260504210043 | 67 | 295 | 8.0 | 14.0 | 0.00 | 0.00 | 0.00 | 67 | 1009.1 |
| 20260504205529 | 67 | 352 | 8.0 | 16.0 | 0.00 | 0.00 | 0.00 | 67 | 1009.4 |
| 20260504205028 | 66 | 360 | 9.0 | 16.0 | 0.00 | 0.00 | 0.00 | 67 | 1009.3 |
| 20260504204548 | 66 | 45 | 12.0 | 17.0 | 0.00 | 0.00 | 0.00 | 67 | 1009.4 |
| 20260504204031 | 66 | 30 | 12.0 | 19.0 | 0.00 | 0.00 | 0.00 | 67 | 1009.4 |
| 20260504203528 | 66 | 5 | 9.0 | 19.0 | 0.00 | 0.00 | 0.00 | 67 | 1009.4 |
| 20260504203058 | 65 | 339 | 12.0 | 18.0 | 0.00 | 0.00 | 0.00 | 67 | 1009.4 |
| 20260504202530 | 65 | 348 | 12.0 | 20.0 | 0.00 | 0.00 | 0.00 | 67 | 1009.4 |
| 20260504202029 | 66 | 9 | 13.0 | 22.0 | 0.00 | 0.00 | 0.00 | 67 | 1009.6 |
| 20260504201541 | 66 | 355 | 15.0 | 22.0 | 0.00 | 0.00 | 0.00 | 67 | 1009.5 |
| 20260504201029 | 65 | 5 | 13.0 | 24.0 | 0.00 | 0.00 | 0.00 | 67 | 1009.6 |
| 20260504200530 | 65 | 352 | 16.0 | 24.0 | 0.00 | 0.00 | 0.00 | 67 | 1009.8 |
| 20260504200041 | 64 | 5 | 16.0 | 26.0 | 0.00 | 0.00 | 0.00 | 66 | 1009.8 |
| 20260504195528 | 63 | 9 | 18.0 | 26.0 | 0.00 | 0.00 | 0.00 | 66 | 1009.9 |
| 20260504195029 | 63 | 355 | 19.0 | 30.0 | 0.00 | 0.00 | 0.00 | 66 | 1009.8 |
| 20260504194537 | 63 | 347 | 22.0 | 30.0 | 0.00 | 0.00 | 0.00 | 66 | 1010.1 |
| 20260504194029 | 63 | 355 | 19.0 | 28.0 | 0.00 | 0.00 | 0.00 | 66 | 1010.0 |
| 20260504193532 | 63 | 348 | 18.0 | 26.0 | 0.00 | 0.00 | 0.00 | 66 | 1010.0 |
| 20260504193049 | 62 | 360 | 18.0 | 26.0 | 0.00 | 0.00 | 0.00 | 66 | 1010.0 |
| 20260504192531 | 61 | 21 | 18.0 | 24.0 | 0.00 | 0.00 | 0.00 | 66 | 1010.0 |
| 20260504192032 | 61 | 360 | 18.0 | 24.0 | 0.00 | 0.00 | 0.00 | 66 | 1010.0 |
| 20260504191536 | 61 | 348 | 15.0 | 24.0 | 0.00 | 0.00 | 0.00 | 66 | 1010.2 |
| 20260504191032 | 61 | 360 | 17.0 | 26.0 | 0.00 | 0.00 | 0.00 | 66 | 1010.2 |
| 20260504190532 | 61 | 349 | 18.0 | 29.0 | 0.00 | 0.00 | 0.00 | 66 | 1010.1 |
| 20260504190105 | 61 | 339 | 18.0 | 29.0 | 0.00 | 0.00 | 0.00 | 66 | 1010.1 |
| 20260504185534 | 62 | 348 | 16.0 | 26.0 | 0.00 | 0.00 | 0.00 | 66 | 1010.1 |
| 20260504185033 | 62 | 333 | 17.0 | 26.0 | 0.00 | 0.00 | 0.00 | 66 | 1010.3 |
| 20260504184541 | 63 | 5 | 17.0 | 26.0 | 0.00 | 0.00 | 0.00 | 66 | 1010.3 |
| 20260504184035 | 63 | 26 | 17.0 | 25.0 | 0.00 | 0.00 | 0.00 | 66 | 1010.2 |
| 20260504183533 | 66 | 360 | 13.0 | 21.0 | 0.00 | 0.00 | 0.00 | 67 | 1010.1 |
| 20260504183045 | 67 | 17 | 6.0 | 12.0 | 0.00 | 0.00 | 0.00 | 67 | 1010.4 |
| 20260504182532 | 67 | 275 | 3.0 | 18.0 | 0.00 | 0.00 | 0.00 | 67 | 1010.3 |
| 20260504182033 | 66 | 171 | 5.0 | 18.0 | 0.00 | 0.00 | 0.00 | 67 | 1010.3 |
| 20260504181544 | 66 | 134 | 5.0 | 11.0 | 0.00 | 0.00 | 0.00 | 67 | 1010.3 |
| 20260504181030 | 65 | 71 | 4.0 | 10.0 | 0.00 | 0.00 | 0.00 | 67 | 1010.3 |
| 20260504180533 | 65 | 18 | 2.0 | 8.0 | 0.00 | 0.00 | 0.00 | 67 | 1010.5 |
| 20260504180044 | 65 | 93 | 2.0 | 6.0 | 0.00 | 0.00 | 0.00 | 66 | 1010.5 |
| 20260504175532 | 65 | 175 | 0.0 | 4.0 | 0.00 | 0.00 | 0.00 | 67 | 1010.5 |
| 20260504175029 | 65 | 260 | 0.0 | 4.0 | 0.00 | 0.00 | 0.00 | 67 | 1010.6 |
| 20260504174544 | 65 | 148 | 2.0 | 8.0 | 0.00 | 0.00 | 0.00 | 67 | 1010.5 |
| 20260504174033 | 64 | 148 | 1.0 | 8.0 | 0.00 | 0.00 | 0.00 | 67 | 1010.7 |
| 20260504173531 | 64 | 121 | 2.0 | 8.0 | 0.00 | 0.00 | 0.00 | 66 | 1010.7 |
| 20260504173044 | 64 | 138 | 3.0 | 8.0 | 0.00 | 0.00 | 0.00 | 66 | 1010.7 |
| 20260504172532 | 64 | 161 | 4.0 | 8.0 | 0.00 | 0.00 | 0.00 | 67 | 1010.7 |
| 20260504172033 | 64 | 142 | 3.0 | 7.0 | 0.00 | 0.00 | 0.00 | 66 | 1010.7 |
| 20260504171543 | 64 | 123 | 2.0 | 7.0 | 0.00 | 0.00 | 0.00 | 67 | 1010.6 |
| 20260504171033 | 63 | 134 | 2.0 | 7.0 | 0.00 | 0.00 | 0.00 | 67 | 1010.7 |
| 20260504170532 | 63 | 0 | 2.0 | 7.0 | 0.00 | 0.00 | 0.00 | 66 | 1010.8 |